9CO9 weather

Phylcon Ranch Airport
Mesa, Colorado, United States

Public forecast

Using degrees Fahrenheit for public forecast. Weather courtesy of forecast.io.

Closest aviation weather report (METAR) to Phylcon Ranch Airport

Closest report is Grand Junction Regional Airport, 17.9 nm (33.2 km) W. Retrieved 2020/04/05 21:53 UTC (25 minutes ago):

KGJT 052153Z 34003KT 10SM OVC110 17/M04 A2976 RMK AO2 SLP034 T01721044

Closest aviation forecast (TAF) to Phylcon Ranch Airport

Closest forecast is Grand Junction Regional Airport, 17.9 nm (33.2 km) W. Retrieved 2020/04/05 18:34 UTC (4 hours ago):

TAF KGJT 051732Z 0518/0618 17013G22KT P6SM FEW110 SCT250 FM052000 21018G26KT P6SM FEW090 SCT100 FM060200 19011KT P6SM SCT100 BKN200 FM060500 11010KT P6SM BKN250 FM061100 14013G21KT P6SM FEW090 FEW200